メインページ
METAR-TAF:

METAR-TAF

空港 :

ポンペイ国際空港

ポンペイ島, ミクロネシア

緯度: 06-59N, 経度: 158-12E, 海抜: 2m

現時点の気象観測

当レポートは26分前の09:50(UTC)に作成
南/南東の風 4kt
気温 28°C
湿度 84%
気圧 1011 hPa
視程: 24.1km
高度1800ftの雲は散在している
高度30000ftの千切れ雲あり

METAR: PTPN 180950Z 15004KT 15SM SCT018 BKN300 28/25 A2986

時間: 21:16 (10:16 UTC)

予報

当レポートは34分前の09:42(UTC)に作成
予報は18日の 10時(UTC)から 19日の 06時(UTC)まで有効
東/南東の風 6kt
視程: 10km
高度1800ftの雲は散在している
高度13000ftの雲は散在している
近辺でにわか雨

TAF: PTPN 180942Z 1810/1906 11006KT P6SM VCSH SCT018 SCT130

4,000以上の空港の気象観測と天気予報(METAR報とTAF報)

利用可能な観測所は地図上に黄色い丸と赤い丸で示す。

丸の上にカーソルを重ねると観測所名を参照できる。

次にクリックすると気象観測と天気予報を参照できる。

マップの切り替え:黒色「×」印の緑ボタンをクリックして拡大、「-」印の緑ボタンをクリックして縮小、緑色の三角印をクリックして隣りの地図に切り替え


METAR-TAF: